ePrivacy and GPDR Cookie Consent by Cookie Consent
EmailTwitter


Surface observations / United Kingdom / EGLL (03772)

Regions: Quebec | Canada | USA | Europe | France | UK | Elsewhere
Station
Display
Info & Location for EGLL (03772) | Help decoding METAR

Weather Conditions observed on 2022/05/20 at 22:20 UTC at LONDON/HEATHROW, UK (EGLL)

Temperature: 13.0 Celsius.

Dewpoint: 7.0 Celsius.

Relative Humidity: 67%

Winds: West at 17 km/h or 9 knots.

Mean Sea level Pressure: 102.00 kilopascals.

Horizontal visibility: 6.21 statute miles or 9.94 kilometers.

Coded METAR:

EGLL 202220Z AUTO 26009KT 9999 NCD 13/07 Q1020 NOSIG=